Time;durP1;ratioP1;P1;durP2;ratioP2;P2;SDS_P1;SDS_P2;PMS_P1;PMS_P2;Temp;Humidity;BMP_temperature;BMP_pressure;BME280_temperature;BME280_humidity;BME280_pressure;Samples;Min_cycle;Max_cycle;Signal;HPM_P1;HPM_P2
2023/08/24 00:00:40;;;;;;;7.80;7.07;;;;;;;;;;5091772;28;20427;-62
2023/08/24 00:03:06;;;;;;;7.80;7.20;;;;;;;;;;5092419;28;20518;-62
2023/08/24 00:05:40;;;;;;;7.83;7.23;;;;;;;;;;5092448;28;20435;-62
2023/08/24 00:08:06;;;;;;;9.23;7.20;;;;;;;;;;5092944;28;20518;-62
2023/08/24 00:10:32;;;;;;;7.67;6.97;;;;;;;;;;5092666;28;20435;-62
2023/08/24 00:12:58;;;;;;;8.57;7.57;;;;;;;;;;5092538;28;20936;-62
2023/08/24 00:15:26;;;;;;;7.40;6.90;;;;;;;;;;5092375;28;20844;-62
2023/08/24 00:17:52;;;;;;;10.63;6.50;;;;;;;;;;5092466;28;20427;-62
2023/08/24 00:20:21;;;;;;;7.13;6.53;;;;;;;;;;5092538;28;20407;-63
2023/08/24 00:22:49;;;;;;;9.03;7.33;;;;;;;;;;5092290;28;20470;-62
2023/08/24 00:25:16;;;;;;;6.73;6.30;;;;;;;;;;5092279;28;20422;-62
2023/08/24 00:27:42;;;;;;;7.27;6.57;;;;;;;;;;5092890;28;20416;-63
2023/08/24 00:30:08;;;;;;;6.83;6.43;;;;;;;;;;5092216;28;20419;-62
2023/08/24 00:32:37;;;;;;;7.37;6.80;;;;;;;;;;5092279;28;20466;-62
2023/08/24 00:35:04;;;;;;;7.00;6.40;;;;;;;;;;5092121;28;20464;-62
2023/08/24 00:37:30;;;;;;;6.10;5.80;;;;;;;;;;5092173;28;20416;-62
2023/08/24 00:39:56;;;;;;;7.50;6.83;;;;;;;;;;5091141;28;20474;-62
2023/08/24 00:42:22;;;;;;;6.60;6.10;;;;;;;;;;5092077;28;20416;-62
2023/08/24 00:44:51;;;;;;;7.60;7.10;;;;;;;;;;5091953;28;20941;-62
2023/08/24 00:47:20;;;;;;;7.23;6.73;;;;;;;;;;5091651;28;20430;-62
2023/08/24 00:49:46;;;;;;;7.43;6.73;;;;;;;;;;5091800;28;20489;-62
2023/08/24 00:52:12;;;;;;;7.67;7.07;;;;;;;;;;5092040;28;20432;-62
2023/08/24 00:54:41;;;;;;;7.60;6.90;;;;;;;;;;5091937;28;20474;-62
2023/08/24 00:57:07;;;;;;;8.30;7.50;;;;;;;;;;5091989;28;20419;-62
2023/08/24 00:59:34;;;;;;;7.00;6.10;;;;;;;;;;5091918;28;20409;-62
2023/08/24 01:02:03;;;;;;;7.83;7.03;;;;;;;;;;5091579;28;20781;-62
2023/08/24 01:04:29;;;;;;;8.03;7.43;;;;;;;;;;5092164;28;20476;-62
2023/08/24 01:06:55;;;;;;;7.17;6.60;;;;;;;;;;5091793;28;20439;-62
2023/08/24 01:09:21;;;;;;;6.97;6.50;;;;;;;;;;5091834;28;20409;-62
2023/08/24 01:11:56;;;;;;;7.50;7.03;;;;;;;;;;5091708;28;20945;-62
2023/08/24 01:14:27;;;;;;;6.70;6.20;;;;;;;;;;5095457;28;20559;-62
2023/08/24 01:16:55;;;;;;;6.57;6.27;;;;;;;;;;5095705;28;20430;-62
2023/08/24 01:19:41;;;;;;;6.83;6.50;;;;;;;;;;5095832;28;20397;-62
2023/08/24 01:22:25;;;;;;;7.77;7.07;;;;;;;;;;5095424;28;20433;-62
2023/08/24 01:25:03;;;;;;;12.40;7.23;;;;;;;;;;5095568;28;20418;-62
2023/08/24 01:27:29;;;;;;;7.33;6.77;;;;;;;;;;5095664;28;20398;-62
2023/08/24 01:29:59;;;;;;;7.23;6.50;;;;;;;;;;5095370;28;20465;-62
2023/08/24 01:32:25;;;;;;;7.83;7.23;;;;;;;;;;5095621;28;20427;-62
2023/08/24 01:34:53;;;;;;;7.80;7.00;;;;;;;;;;5095193;28;20934;-62
2023/08/24 01:37:19;;;;;;;7.77;7.17;;;;;;;;;;5094369;28;20442;-62
2023/08/24 01:39:57;;;;;;;7.83;7.13;;;;;;;;;;5095925;28;20427;-62
2023/08/24 01:42:27;;;;;;;7.33;6.93;;;;;;;;;;5095964;28;20400;-62
2023/08/24 01:44:58;;;;;;;7.53;6.80;;;;;;;;;;5077704;28;20507;-62
2023/08/24 01:47:30;;;;;;;7.67;7.17;;;;;;;;;;5095337;28;20432;-62
2023/08/24 01:49:56;;;;;;;7.60;7.10;;;;;;;;;;5095217;28;20413;-62
2023/08/24 01:52:23;;;;;;;7.30;6.90;;;;;;;;;;5094147;28;20408;-62
2023/08/24 01:54:49;;;;;;;7.20;6.70;;;;;;;;;;5095098;28;20851;-62
2023/08/24 01:57:15;;;;;;;7.30;6.93;;;;;;;;;;5094879;28;20445;-62
2023/08/24 01:59:41;;;;;;;7.07;6.67;;;;;;;;;;5095027;28;20409;-62
2023/08/24 02:02:10;;;;;;;7.43;6.77;;;;;;;;;;5094881;28;20423;-62
2023/08/24 02:04:36;;;;;;;7.43;6.90;;;;;;;;;;5094941;28;20419;-62
2023/08/24 02:07:02;;;;;;;6.73;6.43;;;;;;;;;;5094765;28;20445;-62
2023/08/24 02:09:28;;;;;;;7.30;6.70;;;;;;;;;;5094783;28;20449;-62
2023/08/24 02:11:56;;;;;;;8.03;7.23;;;;;;;;;;5094669;28;20533;-62
2023/08/24 02:14:22;;;;;;;7.90;7.20;;;;;;;;;;5094460;28;20453;-62
2023/08/24 02:16:50;;;;;;;11.80;7.03;;;;;;;;;;5095006;28;20419;-62
2023/08/24 02:19:16;;;;;;;7.87;7.37;;;;;;;;;;5094409;28;20442;-62
2023/08/24 02:21:42;;;;;;;8.50;7.13;;;;;;;;;;5094663;28;20454;-62
2023/08/24 02:24:08;;;;;;;7.77;6.97;;;;;;;;;;5093601;28;20439;-62
2023/08/24 02:26:37;;;;;;;7.83;7.07;;;;;;;;;;5094654;28;20398;-62
2023/08/24 02:29:03;;;;;;;7.87;7.30;;;;;;;;;;5094329;28;20454;-62
2023/08/24 02:31:30;;;;;;;7.60;7.00;;;;;;;;;;5093893;28;20400;-62
2023/08/24 02:33:56;;;;;;;7.90;7.30;;;;;;;;;;5094063;28;21010;-62
2023/08/24 02:36:22;;;;;;;7.03;6.60;;;;;;;;;;5094062;28;20959;-62
2023/08/24 02:38:48;;;;;;;8.17;7.13;;;;;;;;;;5094104;28;20425;-62
2023/08/24 02:41:16;;;;;;;6.77;6.17;;;;;;;;;;5093920;28;20443;-62
2023/08/24 02:43:45;;;;;;;7.40;6.73;;;;;;;;;;5093974;28;20431;-62
2023/08/24 02:46:11;;;;;;;8.37;7.67;;;;;;;;;;5094107;28;20732;-62
2023/08/24 02:48:37;;;;;;;7.10;6.47;;;;;;;;;;5093945;28;20450;-62
2023/08/24 02:51:03;;;;;;;7.20;6.80;;;;;;;;;;5094010;28;20415;-62
2023/08/24 02:53:30;;;;;;;10.50;7.63;;;;;;;;;;5094147;28;20820;-62
2023/08/24 02:55:58;;;;;;;7.33;6.73;;;;;;;;;;5093897;28;20484;-62
2023/08/24 02:58:27;;;;;;;7.77;7.13;;;;;;;;;;5093652;28;20416;-62
2023/08/24 03:00:53;;;;;;;7.07;6.57;;;;;;;;;;5093191;28;20888;-62
2023/08/24 03:03:19;;;;;;;6.87;6.17;;;;;;;;;;5093406;28;20489;-62
2023/08/24 03:05:58;;;;;;;7.00;6.50;;;;;;;;;;5093483;28;20419;-62
2023/08/24 03:08:24;;;;;;;7.60;7.17;;;;;;;;;;5093591;28;20519;-62
2023/08/24 03:10:50;;;;;;;6.60;6.20;;;;;;;;;;5093736;28;20462;-62
2023/08/24 03:13:16;;;;;;;7.13;6.47;;;;;;;;;;5093463;28;20463;-62
2023/08/24 03:15:43;;;;;;;7.13;6.43;;;;;;;;;;5093724;28;20470;-62
2023/08/24 03:18:13;;;;;;;6.67;6.27;;;;;;;;;;5093584;28;20399;-62
2023/08/24 03:20:39;;;;;;;7.13;6.53;;;;;;;;;;5093592;28;20770;-62
2023/08/24 03:23:05;;;;;;;7.30;6.80;;;;;;;;;;5093384;28;20414;-62
2023/08/24 03:25:32;;;;;;;7.23;6.73;;;;;;;;;;5093087;28;20525;-62
2023/08/24 03:27:58;;;;;;;6.63;5.90;;;;;;;;;;5093351;28;20941;-62
2023/08/24 03:30:24;;;;;;;9.40;6.60;;;;;;;;;;5093121;28;20478;-62
2023/08/24 03:32:50;;;;;;;7.20;6.60;;;;;;;;;;5093321;28;20431;-62
2023/08/24 03:35:16;;;;;;;6.63;6.30;;;;;;;;;;5093071;28;20463;-62
2023/08/24 03:37:44;;;;;;;6.73;6.17;;;;;;;;;;5091670;28;20507;-62
2023/08/24 03:40:10;;;;;;;6.60;6.30;;;;;;;;;;5093156;28;20415;-62
2023/08/24 03:42:38;;;;;;;7.80;6.60;;;;;;;;;;5092877;28;20521;-62
2023/08/24 03:45:05;;;;;;;7.17;6.47;;;;;;;;;;5093086;28;20434;-62
2023/08/24 03:47:34;;;;;;;6.93;6.43;;;;;;;;;;5092844;28;20463;-62
2023/08/24 03:50:00;;;;;;;8.97;6.33;;;;;;;;;;5092732;28;20406;-62
2023/08/24 03:52:26;;;;;;;7.20;6.70;;;;;;;;;;5092699;28;20465;-62
2023/08/24 03:54:52;;;;;;;12.63;7.50;;;;;;;;;;5092743;28;20885;-62
2023/08/24 03:57:18;;;;;;;7.27;6.60;;;;;;;;;;5092806;28;20420;-62
2023/08/24 03:59:44;;;;;;;7.90;6.37;;;;;;;;;;5092595;28;20510;-62
2023/08/24 04:02:09;;;;;;;6.90;6.50;;;;;;;;;;5092563;28;20437;-62
2023/08/24 04:04:35;;;;;;;6.80;6.40;;;;;;;;;;5091247;28;20441;-62
2023/08/24 04:07:02;;;;;;;11.80;7.00;;;;;;;;;;5091328;28;20463;-62
2023/08/24 04:09:28;;;;;;;10.67;6.70;;;;;;;;;;5092478;28;20983;-62
2023/08/24 04:11:54;;;;;;;7.10;6.60;;;;;;;;;;5092492;28;20464;-62
2023/08/24 04:14:20;;;;;;;7.90;7.33;;;;;;;;;;5092470;28;20453;-62
2023/08/24 04:16:47;;;;;;;10.77;6.80;;;;;;;;;;5092292;28;20514;-62
2023/08/24 04:19:14;;;;;;;8.40;6.77;;;;;;;;;;5092434;28;20516;-62
2023/08/24 04:21:41;;;;;;;7.93;7.40;;;;;;;;;;5092217;28;20408;-62
2023/08/24 04:24:09;;;;;;;7.20;6.60;;;;;;;;;;5092282;28;20409;-62
2023/08/24 04:26:36;;;;;;;7.67;7.17;;;;;;;;;;5092278;28;20506;-63
2023/08/24 04:29:02;;;;;;;7.93;6.57;;;;;;;;;;5092345;28;20939;-63
2023/08/24 04:31:28;;;;;;;8.23;7.53;;;;;;;;;;5092128;28;20460;-63
2023/08/24 04:33:54;;;;;;;8.03;7.43;;;;;;;;;;5092064;28;20497;-65
2023/08/24 04:36:20;;;;;;;8.67;7.83;;;;;;;;;;5092295;28;20515;-64
2023/08/24 04:38:50;;;;;;;9.03;7.10;;;;;;;;;;5092103;28;20885;-64
2023/08/24 04:41:16;;;;;;;8.00;7.30;;;;;;;;;;5092436;28;20475;-64
2023/08/24 04:43:45;;;;;;;7.60;7.13;;;;;;;;;;5091064;28;20539;-63
2023/08/24 04:46:11;;;;;;;7.50;6.90;;;;;;;;;;5092102;28;20552;-63
2023/08/24 04:48:37;;;;;;;9.20;8.40;;;;;;;;;;5094444;28;20805;-63
2023/08/24 04:51:03;;;;;;;7.90;7.50;;;;;;;;;;5096196;28;20429;-63
2023/08/24 04:53:29;;;;;;;8.27;7.50;;;;;;;;;;5094839;28;20446;-66
2023/08/24 04:55:55;;;;;;;8.50;7.77;;;;;;;;;;5095729;28;21002;-65
2023/08/24 04:58:26;;;;;;;9.50;7.40;;;;;;;;;;5096221;28;20397;-65
2023/08/24 05:00:52;;;;;;;6.80;6.30;;;;;;;;;;5096239;28;20429;-65
2023/08/24 05:03:19;;;;;;;7.13;6.73;;;;;;;;;;5096022;28;20789;-66
2023/08/24 05:05:45;;;;;;;8.37;7.67;;;;;;;;;;5095503;28;20426;-65
2023/08/24 05:08:11;;;;;;;8.13;7.30;;;;;;;;;;5095801;28;20500;-65
2023/08/24 05:10:38;;;;;;;11.10;7.10;;;;;;;;;;5096224;28;20436;-65
2023/08/24 05:13:06;;;;;;;8.00;7.30;;;;;;;;;;5095869;28;20526;-65
2023/08/24 05:15:34;;;;;;;7.57;6.87;;;;;;;;;;5095453;28;20463;-65
2023/08/24 05:18:00;;;;;;;7.50;7.10;;;;;;;;;;5095532;28;20426;-65
2023/08/24 05:20:29;;;;;;;16.93;8.00;;;;;;;;;;5095729;28;20413;-65
2023/08/24 05:22:56;;;;;;;8.20;7.60;;;;;;;;;;5095729;28;20931;-65
2023/08/24 05:25:22;;;;;;;9.20;8.30;;;;;;;;;;5095539;28;20420;-65
2023/08/24 05:27:48;;;;;;;7.80;7.20;;;;;;;;;;5095554;28;20447;-65
2023/08/24 05:30:14;;;;;;;8.10;7.60;;;;;;;;;;5094824;28;20427;-65
2023/08/24 05:32:40;;;;;;;8.70;7.77;;;;;;;;;;5094710;28;20778;-65
2023/08/24 05:35:07;;;;;;;8.90;8.00;;;;;;;;;;5095342;28;20458;-65
2023/08/24 05:37:33;;;;;;;8.77;7.80;;;;;;;;;;5095527;28;20410;-65
2023/08/24 05:40:02;;;;;;;10.97;7.80;;;;;;;;;;5095224;28;20414;-65
2023/08/24 05:42:28;;;;;;;13.70;8.30;;;;;;;;;;5095630;28;20411;-65
2023/08/24 05:44:54;;;;;;;9.03;7.37;;;;;;;;;;5095394;28;20531;-65
2023/08/24 05:47:20;;;;;;;8.10;7.60;;;;;;;;;;5095052;28;20466;-65
2023/08/24 05:49:48;;;;;;;7.13;6.73;;;;;;;;;;5095226;28;20434;-65
2023/08/24 05:52:17;;;;;;;7.63;7.03;;;;;;;;;;5094855;28;20932;-65
2023/08/24 05:54:45;;;;;;;9.93;6.63;;;;;;;;;;5094940;28;20472;-65
2023/08/24 05:57:14;;;;;;;9.40;7.37;;;;;;;;;;5094831;28;20394;-65
2023/08/24 05:59:40;;;;;;;11.83;7.83;;;;;;;;;;5093863;28;20478;-65
2023/08/24 06:02:05;;;;;;;8.07;7.27;;;;;;;;;;5094624;28;20404;-65
2023/08/24 06:04:34;;;;;;;7.80;7.30;;;;;;;;;;5094755;28;20414;-65
2023/08/24 06:07:00;;;;;;;7.87;7.10;;;;;;;;;;5094872;28;20451;-65
2023/08/24 06:09:26;;;;;;;9.30;7.70;;;;;;;;;;5094680;28;20420;-65
2023/08/24 06:11:52;;;;;;;14.07;7.90;;;;;;;;;;5094910;28;20447;-67
2023/08/24 06:14:18;;;;;;;10.77;7.67;;;;;;;;;;5094696;28;20422;-65
2023/08/24 06:16:44;;;;;;;8.03;7.27;;;;;;;;;;5094600;28;20419;-66
2023/08/24 06:19:10;;;;;;;13.53;8.00;;;;;;;;;;5094759;28;20895;-65
2023/08/24 06:21:36;;;;;;;10.73;8.10;;;;;;;;;;5094902;28;20415;-65
2023/08/24 06:24:03;;;;;;;9.50;7.33;;;;;;;;;;5094228;28;20528;-66
2023/08/24 06:26:29;;;;;;;7.70;7.17;;;;;;;;;;5094717;28;20411;-66
2023/08/24 06:28:55;;;;;;;7.80;7.30;;;;;;;;;;5094513;28;20445;-66
2023/08/24 06:31:22;;;;;;;10.93;7.87;;;;;;;;;;5094838;28;20932;-65
2023/08/24 06:33:47;;;;;;;9.20;8.50;;;;;;;;;;5094597;28;20929;-66
2023/08/24 06:36:13;;;;;;;13.13;7.70;;;;;;;;;;5094795;28;20538;-65
2023/08/24 06:38:42;;;;;;;8.97;7.60;;;;;;;;;;5093567;28;20412;-65
2023/08/24 06:41:11;;;;;;;8.97;7.57;;;;;;;;;;5094308;28;20466;-64
2023/08/24 06:43:40;;;;;;;11.60;7.70;;;;;;;;;;5093724;28;20482;-65
2023/08/24 06:46:09;;;;;;;15.93;7.60;;;;;;;;;;5093845;28;20427;-65
2023/08/24 06:48:37;;;;;;;8.70;7.90;;;;;;;;;;5093913;28;20452;-65
2023/08/24 06:51:03;;;;;;;8.90;7.73;;;;;;;;;;5093969;28;20436;-65
2023/08/24 06:53:29;;;;;;;9.60;8.23;;;;;;;;;;5093676;28;20435;-64
2023/08/24 06:55:58;;;;;;;12.20;7.20;;;;;;;;;;5093369;28;20499;-64
2023/08/24 06:58:24;;;;;;;10.87;7.87;;;;;;;;;;5093881;28;20420;-64
2023/08/24 07:00:54;;;;;;;14.77;7.90;;;;;;;;;;5093686;28;20927;-64
2023/08/24 07:03:21;;;;;;;9.23;8.33;;;;;;;;;;5093756;28;20408;-65
2023/08/24 07:05:47;;;;;;;8.40;7.70;;;;;;;;;;5093783;28;20418;-64
2023/08/24 07:08:13;;;;;;;8.83;8.13;;;;;;;;;;5093584;28;20438;-65
2023/08/24 07:10:39;;;;;;;10.10;8.13;;;;;;;;;;5093424;28;20478;-65
2023/08/24 07:13:07;;;;;;;9.07;8.37;;;;;;;;;;5093410;28;20553;-65
2023/08/24 07:15:34;;;;;;;7.87;7.27;;;;;;;;;;5093222;28;20533;-64
2023/08/24 07:18:05;;;;;;;8.10;7.40;;;;;;;;;;5092082;28;20520;-65
2023/08/24 07:20:31;;;;;;;8.37;7.67;;;;;;;;;;5093109;28;20429;-64
2023/08/24 07:22:59;;;;;;;6.77;6.33;;;;;;;;;;5093206;28;20408;-64
2023/08/24 07:25:30;;;;;;;7.60;7.00;;;;;;;;;;5092913;28;20424;-64
2023/08/24 07:27:59;;;;;;;8.30;7.50;;;;;;;;;;5093109;28;20421;-65
2023/08/24 07:30:28;;;;;;;8.63;7.17;;;;;;;;;;5092893;28;20459;-65
2023/08/24 07:32:54;;;;;;;13.53;7.17;;;;;;;;;;5093220;28;20443;-65
2023/08/24 07:35:21;;;;;;;19.27;11.57;;;;;;;;;;5093205;28;20879;-64
2023/08/24 07:37:50;;;;;;;10.73;9.77;;;;;;;;;;5093022;28;20423;-64
2023/08/24 07:40:16;;;;;;;19.00;15.13;;;;;;;;;;5093058;28;20465;-65
2023/08/24 07:42:53;;;;;;;8.43;7.73;;;;;;;;;;5092738;28;20405;-65
2023/08/24 07:45:23;;;;;;;73.03;45.67;;;;;;;;;;5092930;28;20454;-65
2023/08/24 07:47:48;;;;;;;19.00;13.43;;;;;;;;;;5093233;28;20417;-65
2023/08/24 07:50:17;;;;;;;9.83;8.83;;;;;;;;;;5093144;28;20503;-65
2023/08/24 07:52:43;;;;;;;8.60;6.93;;;;;;;;;;5091513;28;20446;-65
2023/08/24 07:55:09;;;;;;;17.53;12.07;;;;;;;;;;5093079;28;20456;-65
2023/08/24 07:57:36;;;;;;;37.60;28.33;;;;;;;;;;5092828;28;20436;-65
2023/08/24 08:00:02;;;;;;;21.33;14.63;;;;;;;;;;5092626;28;21033;-65
2023/08/24 08:02:28;;;;;;;30.97;18.27;;;;;;;;;;5092298;28;20439;-65
2023/08/24 08:04:58;;;;;;;8.13;6.90;;;;;;;;;;5092680;28;20763;-65
2023/08/24 08:07:24;;;;;;;7.20;6.50;;;;;;;;;;5092467;28;20409;-65
2023/08/24 08:09:50;;;;;;;7.90;7.00;;;;;;;;;;5092585;28;20402;-65
2023/08/24 08:12:16;;;;;;;9.03;7.13;;;;;;;;;;5092493;28;20938;-65
2023/08/24 08:14:42;;;;;;;7.67;7.00;;;;;;;;;;5091899;28;20525;-65
2023/08/24 08:17:08;;;;;;;7.63;7.13;;;;;;;;;;5092310;28;20419;-64
2023/08/24 08:19:37;;;;;;;7.20;6.70;;;;;;;;;;5091763;28;20448;-65
2023/08/24 08:22:03;;;;;;;11.00;6.43;;;;;;;;;;5091414;28;20936;-65
2023/08/24 08:24:29;;;;;;;10.90;7.33;;;;;;;;;;5092107;28;20405;-65
2023/08/24 08:26:55;;;;;;;7.47;6.77;;;;;;;;;;5092297;28;20441;-65
2023/08/24 08:29:21;;;;;;;9.17;6.83;;;;;;;;;;5092387;28;20433;-65
2023/08/24 08:31:47;;;;;;;6.80;6.40;;;;;;;;;;5092054;28;20838;-65
2023/08/24 08:34:13;;;;;;;7.67;7.10;;;;;;;;;;5092209;28;20437;-65
2023/08/24 08:36:42;;;;;;;8.13;6.47;;;;;;;;;;5092526;28;20512;-65
2023/08/24 08:39:08;;;;;;;7.93;7.20;;;;;;;;;;5092508;28;20417;-65
2023/08/24 08:41:44;;;;;;;10.13;6.00;;;;;;;;;;5092668;28;20504;-65
2023/08/24 08:44:14;;;;;;;14.77;5.57;;;;;;;;;;5092702;28;20409;-65
2023/08/24 08:46:43;;;;;;;8.30;6.17;;;;;;;;;;5092619;28;20502;-65
2023/08/24 08:49:10;;;;;;;8.87;6.63;;;;;;;;;;5092492;28;20634;-65
2023/08/24 08:51:37;;;;;;;7.13;6.47;;;;;;;;;;5092364;28;20445;-65
2023/08/24 08:54:05;;;;;;;8.50;5.50;;;;;;;;;;5092435;28;20432;-65
2023/08/24 08:56:36;;;;;;;5.80;5.40;;;;;;;;;;5092036;28;20476;-65
2023/08/24 08:59:03;;;;;;;5.97;5.43;;;;;;;;;;5092430;28;20827;-65
2023/08/24 09:01:31;;;;;;;5.90;5.50;;;;;;;;;;5091000;28;20434;-65
2023/08/24 09:03:57;;;;;;;10.07;5.07;;;;;;;;;;5092591;28;20441;-65
2023/08/24 09:06:23;;;;;;;5.17;4.77;;;;;;;;;;5093264;28;21013;-66
2023/08/24 09:08:53;;;;;;;5.30;4.87;;;;;;;;;;5092677;28;20772;-66
2023/08/24 09:11:19;;;;;;;5.23;4.83;;;;;;;;;;5092591;28;20519;-65
2023/08/24 09:13:47;;;;;;;5.97;5.37;;;;;;;;;;5092831;28;20527;-66
2023/08/24 09:16:15;;;;;;;7.47;4.60;;;;;;;;;;5092291;28;20472;-65
2023/08/24 09:18:43;;;;;;;5.20;4.90;;;;;;;;;;5092311;28;20454;-65
2023/08/24 09:21:10;;;;;;;5.03;4.50;;;;;;;;;;5092157;28;20429;-66
2023/08/24 09:23:38;;;;;;;5.47;5.10;;;;;;;;;;5092494;28;20458;-65
2023/08/24 09:26:07;;;;;;;6.70;5.50;;;;;;;;;;5092423;28;20445;-66
2023/08/24 09:28:36;;;;;;;4.80;4.47;;;;;;;;;;5092250;28;20904;-66
2023/08/24 09:31:04;;;;;;;5.07;4.77;;;;;;;;;;5092070;28;20405;-65
2023/08/24 09:33:33;;;;;;;4.80;4.50;;;;;;;;;;5092884;28;20432;-65
2023/08/24 09:36:04;;;;;;;11.20;5.10;;;;;;;;;;5095704;28;20500;-63
2023/08/24 09:38:30;;;;;;;10.10;5.53;;;;;;;;;;5095947;28;20405;-63
2023/08/24 09:40:56;;;;;;;6.27;4.50;;;;;;;;;;5095603;28;20409;-63
2023/08/24 09:43:25;;;;;;;6.00;5.10;;;;;;;;;;5095577;28;20417;-63
2023/08/24 09:45:55;;;;;;;5.13;4.70;;;;;;;;;;5096017;28;20416;-64
2023/08/24 09:48:22;;;;;;;9.23;4.23;;;;;;;;;;5095768;28;20880;-63
2023/08/24 09:50:49;;;;;;;4.97;4.50;;;;;;;;;;5096062;28;20774;-64
2023/08/24 09:53:22;;;;;;;5.10;4.80;;;;;;;;;;5094503;28;20783;-66
2023/08/24 09:56:01;;;;;;;4.90;4.70;;;;;;;;;;5096193;28;20514;-63
2023/08/24 09:58:28;;;;;;;11.63;4.90;;;;;;;;;;5095589;28;20421;-64
2023/08/24 10:00:54;;;;;;;5.70;4.63;;;;;;;;;;5095255;28;20406;-61
2023/08/24 10:03:22;;;;;;;4.43;4.13;;;;;;;;;;5095376;28;20444;-63
2023/08/24 10:05:53;;;;;;;5.40;5.00;;;;;;;;;;5094916;28;20412;-64
2023/08/24 10:08:22;;;;;;;4.50;4.30;;;;;;;;;;5095147;28;20427;-64
2023/08/24 10:10:49;;;;;;;5.40;4.30;;;;;;;;;;5095287;28;20496;-65
2023/08/24 10:13:19;;;;;;;5.90;4.27;;;;;;;;;;5094935;28;20524;-63
2023/08/24 10:15:48;;;;;;;5.07;4.77;;;;;;;;;;5095036;28;20456;-63
2023/08/24 10:18:18;;;;;;;5.27;5.07;;;;;;;;;;5094862;28;20492;-64
2023/08/24 10:20:45;;;;;;;4.90;4.50;;;;;;;;;;5095182;28;20420;-64
2023/08/24 10:23:15;;;;;;;5.50;4.93;;;;;;;;;;5094783;28;20425;-64
2023/08/24 10:25:42;;;;;;;6.67;4.60;;;;;;;;;;5095094;28;20448;-64
2023/08/24 10:28:08;;;;;;;5.40;5.00;;;;;;;;;;5094986;28;20776;-64
2023/08/24 10:30:35;;;;;;;4.70;4.40;;;;;;;;;;5095022;28;20992;-63
2023/08/24 10:33:01;;;;;;;4.40;4.10;;;;;;;;;;5094757;28;20496;-64
2023/08/24 10:35:28;;;;;;;4.97;4.70;;;;;;;;;;5094673;28;20496;-63
2023/08/24 10:37:54;;;;;;;5.07;4.43;;;;;;;;;;5093669;28;20429;-63
2023/08/24 10:40:46;;;;;;;7.13;4.37;;;;;;;;;;5093282;28;20939;-63
2023/08/24 10:43:15;;;;;;;13.70;12.20;;;;;;;;;;5091679;28;20488;-63
2023/08/24 10:45:59;;;;;;;14.93;13.40;;;;;;;;;;5093630;28;20488;-63
2023/08/24 10:48:27;;;;;;;4.40;4.00;;;;;;;;;;5094393;28;20416;-63
2023/08/24 10:51:12;;;;;;;9.57;4.80;;;;;;;;;;5094446;28;20428;-64
2023/08/24 10:53:41;;;;;;;8.10;7.40;;;;;;;;;;5094374;28;20452;-64
2023/08/24 10:56:11;;;;;;;5.57;5.27;;;;;;;;;;5093162;28;20560;-64
2023/08/24 10:58:37;;;;;;;5.20;4.70;;;;;;;;;;5094691;28;20410;-64
2023/08/24 11:01:03;;;;;;;8.07;4.00;;;;;;;;;;5094192;28;20420;-64
2023/08/24 11:03:35;;;;;;;4.10;4.00;;;;;;;;;;5094308;28;21037;-64
2023/08/24 11:06:01;;;;;;;5.17;4.37;;;;;;;;;;5094454;28;20496;-64
2023/08/24 11:08:46;;;;;;;4.40;4.30;;;;;;;;;;5092801;28;20437;-64
2023/08/24 11:11:22;;;;;;;4.20;3.90;;;;;;;;;;5094220;28;20417;-64
2023/08/24 11:14:07;;;;;;;5.90;4.13;;;;;;;;;;5094356;28;20917;-65
2023/08/24 11:16:39;;;;;;;4.47;4.17;;;;;;;;;;5093829;28;20833;-65
2023/08/24 11:19:07;;;;;;;5.17;4.70;;;;;;;;;;5092736;28;20428;-65
2023/08/24 11:21:36;;;;;;;7.93;5.00;;;;;;;;;;5093695;28;20416;-64
2023/08/24 11:24:02;;;;;;;4.40;4.20;;;;;;;;;;5093692;28;20513;-64
2023/08/24 11:26:30;;;;;;;4.57;4.27;;;;;;;;;;5093956;28;20417;-65
2023/08/24 11:28:57;;;;;;;5.07;3.70;;;;;;;;;;5093857;28;20496;-65
2023/08/24 11:31:24;;;;;;;8.70;4.60;;;;;;;;;;5093451;28;20546;-64
2023/08/24 11:33:55;;;;;;;4.30;4.10;;;;;;;;;;5093810;28;20806;-65
2023/08/24 11:36:21;;;;;;;3.80;3.60;;;;;;;;;;5092155;28;20456;-65
2023/08/24 11:38:47;;;;;;;7.90;3.90;;;;;;;;;;5093535;28;20822;-64
2023/08/24 11:41:13;;;;;;;6.60;4.10;;;;;;;;;;5093616;28;20495;-65
2023/08/24 11:43:39;;;;;;;14.67;4.47;;;;;;;;;;5093265;28;20429;-65
2023/08/24 11:46:07;;;;;;;4.87;4.47;;;;;;;;;;5093766;28;20405;-65
2023/08/24 11:48:33;;;;;;;4.50;4.10;;;;;;;;;;5093431;28;20413;-65
2023/08/24 11:50:59;;;;;;;4.13;3.93;;;;;;;;;;5093480;28;20417;-65
2023/08/24 11:53:26;;;;;;;5.10;4.10;;;;;;;;;;5093836;28;20512;-64
2023/08/24 11:56:02;;;;;;;5.10;4.60;;;;;;;;;;5093379;28;20586;-66
2023/08/24 11:58:28;;;;;;;4.20;3.73;;;;;;;;;;5092555;28;20429;-64
2023/08/24 12:00:54;;;;;;;4.33;4.00;;;;;;;;;;5093267;28;20413;-64
2023/08/24 12:03:22;;;;;;;5.43;4.00;;;;;;;;;;5093328;28;20199;-69
2023/08/24 12:05:48;;;;;;;5.73;4.90;;;;;;;;;;5092113;28;20432;-65
2023/08/24 12:08:14;;;;;;;9.43;4.70;;;;;;;;;;5093081;28;20819;-64
2023/08/24 12:10:48;;;;;;;4.50;4.13;;;;;;;;;;5092773;28;20428;-64
2023/08/24 12:13:15;;;;;;;5.60;3.70;;;;;;;;;;5093046;28;20456;-64
2023/08/24 12:15:41;;;;;;;4.60;4.20;;;;;;;;;;5092942;28;20472;-64
2023/08/24 12:18:11;;;;;;;5.13;4.50;;;;;;;;;;5092839;28;20434;-64
2023/08/24 12:20:37;;;;;;;4.57;4.13;;;;;;;;;;5092908;28;20405;-64
2023/08/24 12:23:03;;;;;;;4.93;3.87;;;;;;;;;;5092849;28;20461;-63
2023/08/24 12:25:29;;;;;;;4.23;3.93;;;;;;;;;;5092809;28;20428;-64
2023/08/24 12:28:10;;;;;;;7.70;4.37;;;;;;;;;;5092874;28;20432;-63
2023/08/24 12:30:46;;;;;;;4.77;4.37;;;;;;;;;;5092565;28;20413;-63
2023/08/24 12:33:41;;;;;;;4.93;4.37;;;;;;;;;;5092659;28;20436;-62
2023/08/24 12:36:10;;;;;;;7.43;4.63;;;;;;;;;;5079799;28;20465;-63
2023/08/24 12:38:36;;;;;;;5.07;4.57;;;;;;;;;;5092609;28;20420;-63
2023/08/24 12:41:04;;;;;;;4.93;4.20;;;;;;;;;;5092764;28;20417;-63
2023/08/24 12:43:32;;;;;;;6.90;4.30;;;;;;;;;;5092562;28;20442;-63
2023/08/24 12:45:58;;;;;;;4.87;4.43;;;;;;;;;;5092701;28;20424;-63
2023/08/24 12:48:24;;;;;;;9.73;4.80;;;;;;;;;;5092108;28;20465;-63
2023/08/24 12:50:50;;;;;;;4.50;4.30;;;;;;;;;;5092538;28;20218;-62
2023/08/24 12:53:16;;;;;;;5.10;4.70;;;;;;;;;;5092388;28;20409;-62
2023/08/24 12:55:45;;;;;;;18.93;5.10;;;;;;;;;;5090973;28;20235;-65
2023/08/24 12:58:11;;;;;;;4.20;3.90;;;;;;;;;;5092407;28;20199;-65
2023/08/24 13:00:37;;;;;;;4.73;3.97;;;;;;;;;;5092043;28;20451;-66
2023/08/24 13:03:03;;;;;;;10.20;4.57;;;;;;;;;;5092156;28;20416;-66
2023/08/24 13:05:29;;;;;;;4.10;3.53;;;;;;;;;;5090780;28;20175;-66
2023/08/24 13:07:56;;;;;;;9.23;4.47;;;;;;;;;;5092368;28;20466;-65
2023/08/24 13:10:25;;;;;;;5.23;4.03;;;;;;;;;;5095697;28;20783;-65
2023/08/24 13:12:51;;;;;;;4.70;4.30;;;;;;;;;;5096343;28;20445;-66
2023/08/24 13:15:20;;;;;;;4.23;3.93;;;;;;;;;;5094544;28;20480;-67
2023/08/24 13:17:46;;;;;;;5.67;4.90;;;;;;;;;;5095652;28;20175;-67
2023/08/24 13:20:12;;;;;;;4.63;3.60;;;;;;;;;;5095923;28;20586;-67
2023/08/24 13:22:38;;;;;;;33.03;23.57;;;;;;;;;;5095808;28;20405;-67
2023/08/24 13:25:04;;;;;;;15.93;9.83;;;;;;;;;;5096194;28;20179;-67
2023/08/24 13:27:30;;;;;;;6.07;3.90;;;;;;;;;;5095997;28;20183;-67
2023/08/24 13:30:00;;;;;;;3.70;3.40;;;;;;;;;;5094796;28;20437;-67
2023/08/24 13:32:26;;;;;;;5.90;5.27;;;;;;;;;;5095504;28;20474;-67
2023/08/24 13:34:55;;;;;;;18.13;14.63;;;;;;;;;;5095458;28;20888;-67
2023/08/24 13:37:21;;;;;;;6.50;4.37;;;;;;;;;;5095941;28;20241;-67
2023/08/24 13:39:50;;;;;;;14.60;4.30;;;;;;;;;;5095475;28;20546;-69
2023/08/24 13:42:16;;;;;;;5.77;3.77;;;;;;;;;;5095744;28;20413;-67
2023/08/24 13:44:44;;;;;;;3.70;3.43;;;;;;;;;;5095730;28;20574;-67
2023/08/24 13:47:12;;;;;;;3.43;3.13;;;;;;;;;;5095747;28;20410;-67
2023/08/24 13:49:38;;;;;;;12.23;3.60;;;;;;;;;;5095114;28;20433;-66
2023/08/24 13:52:04;;;;;;;5.60;2.47;;;;;;;;;;5095705;28;20393;-66
2023/08/24 13:54:30;;;;;;;9.43;3.50;;;;;;;;;;5095426;28;20490;-66
2023/08/24 13:56:58;;;;;;;8.40;3.50;;;;;;;;;;5095262;28;20405;-67
2023/08/24 13:59:24;;;;;;;11.10;3.30;;;;;;;;;;5095563;28;20663;-67
2023/08/24 14:01:50;;;;;;;8.97;3.90;;;;;;;;;;5095175;28;20427;-67
2023/08/24 14:04:16;;;;;;;9.03;3.20;;;;;;;;;;5095133;28;20429;-67
2023/08/24 14:06:42;;;;;;;4.67;3.40;;;;;;;;;;5095038;28;20196;-67
2023/08/24 14:09:08;;;;;;;10.03;4.17;;;;;;;;;;5094890;28;20175;-67
2023/08/24 14:11:34;;;;;;;8.67;3.70;;;;;;;;;;5094574;28;20474;-67
2023/08/24 14:14:00;;;;;;;7.27;4.03;;;;;;;;;;5094555;28;20427;-67
2023/08/24 14:16:26;;;;;;;5.67;3.47;;;;;;;;;;5094649;28;20819;-67
2023/08/24 14:18:53;;;;;;;5.00;3.03;;;;;;;;;;5094893;28;20199;-67
2023/08/24 14:21:23;;;;;;;13.10;3.13;;;;;;;;;;5093750;28;20401;-67
2023/08/24 14:23:50;;;;;;;5.30;3.40;;;;;;;;;;5095040;28;20418;-67
2023/08/24 14:26:16;;;;;;;4.70;4.23;;;;;;;;;;5095052;28;20408;-64
2023/08/24 14:28:53;;;;;;;4.40;4.10;;;;;;;;;;5094639;28;20434;-64
2023/08/24 14:31:22;;;;;;;5.17;4.87;;;;;;;;;;5095534;28;20408;-65
2023/08/24 14:33:51;;;;;;;11.23;4.30;;;;;;;;;;5094673;28;20420;-65
2023/08/24 14:36:17;;;;;;;6.50;4.20;;;;;;;;;;5094123;28;20522;-69
2023/08/24 14:38:47;;;;;;;6.83;3.50;;;;;;;;;;5094153;28;20420;-68
2023/08/24 14:41:13;;;;;;;8.63;4.13;;;;;;;;;;5094478;28;20411;-68
2023/08/24 14:43:39;;;;;;;7.23;3.50;;;;;;;;;;5092966;28;20433;-68